sensor_id;sensor_type;location;lat;lon;timestamp;P1;durP1;ratioP1;P2;durP2;ratioP2
52866;SDS011;38739;53.324;6.862;2024-02-26T00:02:25;18.40;;;11.32;;
52866;SDS011;38739;53.324;6.862;2024-02-26T00:04:50;18.70;;;11.38;;
52866;SDS011;38739;53.324;6.862;2024-02-26T00:07:16;16.20;;;10.98;;
52866;SDS011;38739;53.324;6.862;2024-02-26T00:09:42;18.23;;;10.70;;
52866;SDS011;38739;53.324;6.862;2024-02-26T00:12:08;16.45;;;11.27;;
52866;SDS011;38739;53.324;6.862;2024-02-26T00:14:34;14.48;;;10.88;;
52866;SDS011;38739;53.324;6.862;2024-02-26T00:17:00;15.85;;;11.35;;
52866;SDS011;38739;53.324;6.862;2024-02-26T00:19:26;17.88;;;11.85;;
52866;SDS011;38739;53.324;6.862;2024-02-26T00:21:51;15.38;;;11.30;;
52866;SDS011;38739;53.324;6.862;2024-02-26T00:24:18;17.33;;;12.20;;
52866;SDS011;38739;53.324;6.862;2024-02-26T00:26:44;17.48;;;12.20;;
52866;SDS011;38739;53.324;6.862;2024-02-26T00:29:10;19.38;;;11.90;;
52866;SDS011;38739;53.324;6.862;2024-02-26T00:31:36;18.48;;;12.80;;
52866;SDS011;38739;53.324;6.862;2024-02-26T00:34:03;21.50;;;12.23;;
52866;SDS011;38739;53.324;6.862;2024-02-26T00:36:28;15.95;;;11.45;;
52866;SDS011;38739;53.324;6.862;2024-02-26T00:38:54;15.63;;;11.50;;
52866;SDS011;38739;53.324;6.862;2024-02-26T00:41:20;16.50;;;11.23;;
52866;SDS011;38739;53.324;6.862;2024-02-26T00:43:46;16.83;;;11.60;;
52866;SDS011;38739;53.324;6.862;2024-02-26T00:46:12;16.50;;;11.68;;
52866;SDS011;38739;53.324;6.862;2024-02-26T00:48:38;16.20;;;11.23;;
52866;SDS011;38739;53.324;6.862;2024-02-26T00:51:04;15.73;;;10.98;;
52866;SDS011;38739;53.324;6.862;2024-02-26T00:53:30;20.40;;;10.60;;
52866;SDS011;38739;53.324;6.862;2024-02-26T00:55:57;16.38;;;11.23;;
52866;SDS011;38739;53.324;6.862;2024-02-26T00:58:24;13.10;;;9.77;;
52866;SDS011;38739;53.324;6.862;2024-02-26T01:00:50;14.80;;;10.48;;
52866;SDS011;38739;53.324;6.862;2024-02-26T01:03:17;14.52;;;10.13;;
52866;SDS011;38739;53.324;6.862;2024-02-26T01:05:42;14.75;;;9.85;;
52866;SDS011;38739;53.324;6.862;2024-02-26T01:08:08;14.00;;;9.88;;
52866;SDS011;38739;53.324;6.862;2024-02-26T01:10:34;16.52;;;10.48;;
52866;SDS011;38739;53.324;6.862;2024-02-26T01:13:00;15.65;;;10.38;;
52866;SDS011;38739;53.324;6.862;2024-02-26T01:15:26;16.63;;;11.07;;
52866;SDS011;38739;53.324;6.862;2024-02-26T01:17:52;14.70;;;10.68;;
52866;SDS011;38739;53.324;6.862;2024-02-26T01:20:18;20.52;;;11.50;;
52866;SDS011;38739;53.324;6.862;2024-02-26T01:22:44;16.00;;;11.10;;
52866;SDS011;38739;53.324;6.862;2024-02-26T01:25:10;17.98;;;11.02;;
52866;SDS011;38739;53.324;6.862;2024-02-26T01:27:37;16.05;;;10.82;;
52866;SDS011;38739;53.324;6.862;2024-02-26T01:30:04;16.50;;;10.82;;
52866;SDS011;38739;53.324;6.862;2024-02-26T01:32:31;16.02;;;10.95;;
52866;SDS011;38739;53.324;6.862;2024-02-26T01:34:57;16.45;;;10.75;;
52866;SDS011;38739;53.324;6.862;2024-02-26T01:37:23;14.90;;;10.60;;
52866;SDS011;38739;53.324;6.862;2024-02-26T01:39:49;13.43;;;9.80;;
52866;SDS011;38739;53.324;6.862;2024-02-26T01:42:15;13.98;;;9.55;;
52866;SDS011;38739;53.324;6.862;2024-02-26T01:44:40;13.82;;;8.88;;
52866;SDS011;38739;53.324;6.862;2024-02-26T01:47:07;13.10;;;9.13;;
52866;SDS011;38739;53.324;6.862;2024-02-26T01:49:36;12.38;;;8.82;;
52866;SDS011;38739;53.324;6.862;2024-02-26T01:52:03;13.32;;;8.73;;
52866;SDS011;38739;53.324;6.862;2024-02-26T01:54:31;11.43;;;8.70;;
52866;SDS011;38739;53.324;6.862;2024-02-26T01:56:59;12.30;;;8.10;;
52866;SDS011;38739;53.324;6.862;2024-02-26T01:59:25;14.27;;;7.93;;
52866;SDS011;38739;53.324;6.862;2024-02-26T02:01:52;10.95;;;8.27;;
52866;SDS011;38739;53.324;6.862;2024-02-26T02:04:23;9.55;;;6.90;;
52866;SDS011;38739;53.324;6.862;2024-02-26T02:06:49;9.90;;;7.18;;
52866;SDS011;38739;53.324;6.862;2024-02-26T02:09:17;12.57;;;7.25;;
52866;SDS011;38739;53.324;6.862;2024-02-26T02:11:43;10.38;;;7.50;;
52866;SDS011;38739;53.324;6.862;2024-02-26T02:14:13;10.95;;;7.65;;
52866;SDS011;38739;53.324;6.862;2024-02-26T02:16:39;10.25;;;7.32;;
52866;SDS011;38739;53.324;6.862;2024-02-26T02:19:05;9.70;;;7.55;;
52866;SDS011;38739;53.324;6.862;2024-02-26T02:21:31;10.23;;;7.45;;
52866;SDS011;38739;53.324;6.862;2024-02-26T02:23:56;11.27;;;7.35;;
52866;SDS011;38739;53.324;6.862;2024-02-26T02:26:22;9.45;;;6.95;;
52866;SDS011;38739;53.324;6.862;2024-02-26T02:28:48;10.82;;;6.50;;
52866;SDS011;38739;53.324;6.862;2024-02-26T02:31:14;11.20;;;7.40;;
52866;SDS011;38739;53.324;6.862;2024-02-26T02:33:40;8.48;;;6.07;;
52866;SDS011;38739;53.324;6.862;2024-02-26T02:36:06;9.85;;;6.78;;
52866;SDS011;38739;53.324;6.862;2024-02-26T02:38:35;11.32;;;6.35;;
52866;SDS011;38739;53.324;6.862;2024-02-26T02:41:13;11.48;;;6.53;;
52866;SDS011;38739;53.324;6.862;2024-02-26T02:43:38;10.63;;;6.10;;
52866;SDS011;38739;53.324;6.862;2024-02-26T02:46:04;9.90;;;6.25;;
52866;SDS011;38739;53.324;6.862;2024-02-26T02:48:30;8.70;;;6.00;;
52866;SDS011;38739;53.324;6.862;2024-02-26T02:50:55;10.52;;;5.50;;
52866;SDS011;38739;53.324;6.862;2024-02-26T02:53:21;11.43;;;5.78;;
52866;SDS011;38739;53.324;6.862;2024-02-26T02:55:47;12.20;;;5.60;;
52866;SDS011;38739;53.324;6.862;2024-02-26T02:58:12;8.23;;;5.35;;
52866;SDS011;38739;53.324;6.862;2024-02-26T03:00:38;9.35;;;5.57;;
52866;SDS011;38739;53.324;6.862;2024-02-26T03:03:04;8.45;;;5.55;;
52866;SDS011;38739;53.324;6.862;2024-02-26T03:05:30;11.23;;;5.95;;
52866;SDS011;38739;53.324;6.862;2024-02-26T03:07:55;7.15;;;5.25;;
52866;SDS011;38739;53.324;6.862;2024-02-26T03:10:21;8.35;;;5.15;;
52866;SDS011;38739;53.324;6.862;2024-02-26T03:12:47;7.43;;;5.25;;
52866;SDS011;38739;53.324;6.862;2024-02-26T03:15:12;9.15;;;5.05;;
52866;SDS011;38739;53.324;6.862;2024-02-26T03:17:38;9.77;;;5.40;;
52866;SDS011;38739;53.324;6.862;2024-02-26T03:20:04;10.48;;;5.18;;
52866;SDS011;38739;53.324;6.862;2024-02-26T03:22:30;9.35;;;4.90;;
52866;SDS011;38739;53.324;6.862;2024-02-26T03:24:56;9.40;;;5.03;;
52866;SDS011;38739;53.324;6.862;2024-02-26T03:27:22;7.22;;;5.20;;
52866;SDS011;38739;53.324;6.862;2024-02-26T03:29:48;8.73;;;5.00;;
52866;SDS011;38739;53.324;6.862;2024-02-26T03:32:14;7.80;;;4.78;;
52866;SDS011;38739;53.324;6.862;2024-02-26T03:34:39;9.15;;;5.32;;
52866;SDS011;38739;53.324;6.862;2024-02-26T03:37:05;9.82;;;4.97;;
52866;SDS011;38739;53.324;6.862;2024-02-26T03:39:32;6.45;;;4.68;;
52866;SDS011;38739;53.324;6.862;2024-02-26T03:41:58;7.13;;;4.30;;
52866;SDS011;38739;53.324;6.862;2024-02-26T03:44:24;6.55;;;4.40;;
52866;SDS011;38739;53.324;6.862;2024-02-26T03:46:50;7.40;;;3.90;;
52866;SDS011;38739;53.324;6.862;2024-02-26T03:49:15;11.98;;;4.85;;
52866;SDS011;38739;53.324;6.862;2024-02-26T03:51:41;7.43;;;4.20;;
52866;SDS011;38739;53.324;6.862;2024-02-26T03:54:07;7.25;;;4.60;;
52866;SDS011;38739;53.324;6.862;2024-02-26T03:56:33;7.07;;;3.97;;
52866;SDS011;38739;53.324;6.862;2024-02-26T03:58:58;9.82;;;3.72;;
52866;SDS011;38739;53.324;6.862;2024-02-26T04:01:26;4.80;;;3.60;;
52866;SDS011;38739;53.324;6.862;2024-02-26T04:03:52;6.43;;;3.75;;
52866;SDS011;38739;53.324;6.862;2024-02-26T04:06:18;7.93;;;4.03;;
52866;SDS011;38739;53.324;6.862;2024-02-26T04:08:46;6.10;;;4.03;;
52866;SDS011;38739;53.324;6.862;2024-02-26T04:11:12;9.50;;;4.30;;
52866;SDS011;38739;53.324;6.862;2024-02-26T04:13:38;9.05;;;4.38;;
52866;SDS011;38739;53.324;6.862;2024-02-26T04:16:04;6.93;;;4.95;;
52866;SDS011;38739;53.324;6.862;2024-02-26T04:18:31;8.50;;;4.30;;
52866;SDS011;38739;53.324;6.862;2024-02-26T04:20:57;7.63;;;4.80;;
52866;SDS011;38739;53.324;6.862;2024-02-26T04:23:23;7.30;;;4.30;;
52866;SDS011;38739;53.324;6.862;2024-02-26T04:25:49;8.13;;;4.82;;
52866;SDS011;38739;53.324;6.862;2024-02-26T04:28:15;8.32;;;4.72;;
52866;SDS011;38739;53.324;6.862;2024-02-26T04:30:40;10.65;;;5.38;;
52866;SDS011;38739;53.324;6.862;2024-02-26T04:33:06;7.30;;;4.85;;
52866;SDS011;38739;53.324;6.862;2024-02-26T04:35:32;6.88;;;5.07;;
52866;SDS011;38739;53.324;6.862;2024-02-26T04:38:00;8.43;;;5.07;;
52866;SDS011;38739;53.324;6.862;2024-02-26T04:40:26;8.43;;;5.15;;
52866;SDS011;38739;53.324;6.862;2024-02-26T04:42:51;8.57;;;4.57;;
52866;SDS011;38739;53.324;6.862;2024-02-26T04:45:17;8.73;;;4.75;;
52866;SDS011;38739;53.324;6.862;2024-02-26T04:47:43;5.82;;;4.43;;
52866;SDS011;38739;53.324;6.862;2024-02-26T04:50:08;7.70;;;4.25;;
52866;SDS011;38739;53.324;6.862;2024-02-26T04:52:34;6.90;;;4.45;;
52866;SDS011;38739;53.324;6.862;2024-02-26T04:55:01;9.10;;;4.75;;
52866;SDS011;38739;53.324;6.862;2024-02-26T04:57:28;7.43;;;4.70;;
52866;SDS011;38739;53.324;6.862;2024-02-26T04:59:54;9.40;;;4.53;;
52866;SDS011;38739;53.324;6.862;2024-02-26T05:02:19;7.38;;;4.72;;
52866;SDS011;38739;53.324;6.862;2024-02-26T05:04:45;7.32;;;3.92;;
52866;SDS011;38739;53.324;6.862;2024-02-26T05:07:11;8.40;;;4.40;;
52866;SDS011;38739;53.324;6.862;2024-02-26T05:09:37;7.10;;;4.60;;
52866;SDS011;38739;53.324;6.862;2024-02-26T05:12:03;8.38;;;4.60;;
52866;SDS011;38739;53.324;6.862;2024-02-26T05:14:29;5.72;;;4.30;;
52866;SDS011;38739;53.324;6.862;2024-02-26T05:16:54;6.53;;;4.18;;
52866;SDS011;38739;53.324;6.862;2024-02-26T05:19:21;6.47;;;4.38;;
52866;SDS011;38739;53.324;6.862;2024-02-26T05:21:46;7.15;;;4.35;;
52866;SDS011;38739;53.324;6.862;2024-02-26T05:24:14;6.68;;;4.60;;
52866;SDS011;38739;53.324;6.862;2024-02-26T05:26:42;7.65;;;4.35;;
52866;SDS011;38739;53.324;6.862;2024-02-26T05:29:10;6.30;;;4.68;;
52866;SDS011;38739;53.324;6.862;2024-02-26T05:31:36;5.95;;;4.40;;
52866;SDS011;38739;53.324;6.862;2024-02-26T05:34:02;7.95;;;4.60;;
52866;SDS011;38739;53.324;6.862;2024-02-26T05:36:27;6.70;;;4.80;;
52866;SDS011;38739;53.324;6.862;2024-02-26T05:38:58;10.40;;;4.85;;
52866;SDS011;38739;53.324;6.862;2024-02-26T05:41:25;8.10;;;4.13;;
52866;SDS011;38739;53.324;6.862;2024-02-26T05:43:54;7.30;;;4.07;;
52866;SDS011;38739;53.324;6.862;2024-02-26T05:46:20;5.65;;;4.30;;
52866;SDS011;38739;53.324;6.862;2024-02-26T05:48:47;5.13;;;3.90;;
52866;SDS011;38739;53.324;6.862;2024-02-26T05:51:15;7.60;;;3.88;;
52866;SDS011;38739;53.324;6.862;2024-02-26T05:53:41;5.90;;;3.60;;
52866;SDS011;38739;53.324;6.862;2024-02-26T05:56:07;5.53;;;4.00;;
52866;SDS011;38739;53.324;6.862;2024-02-26T05:58:32;6.03;;;3.90;;
52866;SDS011;38739;53.324;6.862;2024-02-26T06:00:58;5.78;;;4.15;;
52866;SDS011;38739;53.324;6.862;2024-02-26T06:03:25;6.30;;;4.25;;
52866;SDS011;38739;53.324;6.862;2024-02-26T06:05:51;6.68;;;4.22;;
52866;SDS011;38739;53.324;6.862;2024-02-26T06:08:18;9.43;;;4.40;;
52866;SDS011;38739;53.324;6.862;2024-02-26T06:10:44;8.40;;;4.70;;
52866;SDS011;38739;53.324;6.862;2024-02-26T06:13:10;8.10;;;4.70;;
52866;SDS011;38739;53.324;6.862;2024-02-26T06:15:36;10.00;;;5.03;;
52866;SDS011;38739;53.324;6.862;2024-02-26T06:18:02;7.10;;;4.88;;
52866;SDS011;38739;53.324;6.862;2024-02-26T06:20:27;6.20;;;4.50;;
52866;SDS011;38739;53.324;6.862;2024-02-26T06:22:53;6.13;;;4.40;;
52866;SDS011;38739;53.324;6.862;2024-02-26T06:25:19;7.53;;;4.60;;
52866;SDS011;38739;53.324;6.862;2024-02-26T06:27:45;5.82;;;4.10;;
52866;SDS011;38739;53.324;6.862;2024-02-26T06:30:10;5.90;;;3.85;;
52866;SDS011;38739;53.324;6.862;2024-02-26T06:32:39;10.07;;;3.80;;
52866;SDS011;38739;53.324;6.862;2024-02-26T06:35:05;8.23;;;3.70;;
52866;SDS011;38739;53.324;6.862;2024-02-26T06:37:33;5.10;;;3.30;;
52866;SDS011;38739;53.324;6.862;2024-02-26T06:39:59;5.15;;;3.10;;
52866;SDS011;38739;53.324;6.862;2024-02-26T06:42:25;5.85;;;3.53;;
52866;SDS011;38739;53.324;6.862;2024-02-26T06:44:51;6.45;;;3.22;;
52866;SDS011;38739;53.324;6.862;2024-02-26T06:47:16;4.28;;;2.90;;
52866;SDS011;38739;53.324;6.862;2024-02-26T06:49:42;5.90;;;3.15;;
52866;SDS011;38739;53.324;6.862;2024-02-26T06:52:09;7.18;;;2.97;;
52866;SDS011;38739;53.324;6.862;2024-02-26T06:54:34;6.65;;;2.97;;
52866;SDS011;38739;53.324;6.862;2024-02-26T06:57:03;5.50;;;3.03;;
52866;SDS011;38739;53.324;6.862;2024-02-26T06:59:29;5.55;;;2.97;;
52866;SDS011;38739;53.324;6.862;2024-02-26T07:01:54;6.28;;;2.85;;
52866;SDS011;38739;53.324;6.862;2024-02-26T07:04:20;6.30;;;3.08;;
52866;SDS011;38739;53.324;6.862;2024-02-26T07:06:46;7.75;;;3.67;;
52866;SDS011;38739;53.324;6.862;2024-02-26T07:09:12;6.43;;;3.72;;
52866;SDS011;38739;53.324;6.862;2024-02-26T07:11:39;7.07;;;4.05;;
52866;SDS011;38739;53.324;6.862;2024-02-26T07:14:08;6.45;;;4.07;;
52866;SDS011;38739;53.324;6.862;2024-02-26T07:16:34;8.73;;;4.53;;
52866;SDS011;38739;53.324;6.862;2024-02-26T07:18:59;6.85;;;4.30;;
52866;SDS011;38739;53.324;6.862;2024-02-26T07:21:25;5.07;;;3.85;;
52866;SDS011;38739;53.324;6.862;2024-02-26T07:23:51;4.90;;;4.00;;
52866;SDS011;38739;53.324;6.862;2024-02-26T07:26:17;8.02;;;4.35;;
52866;SDS011;38739;53.324;6.862;2024-02-26T07:28:44;7.50;;;4.13;;
52866;SDS011;38739;53.324;6.862;2024-02-26T07:31:10;7.70;;;4.07;;
52866;SDS011;38739;53.324;6.862;2024-02-26T07:33:36;7.75;;;3.97;;
52866;SDS011;38739;53.324;6.862;2024-02-26T07:36:01;6.50;;;4.07;;
52866;SDS011;38739;53.324;6.862;2024-02-26T07:38:27;6.03;;;3.80;;
52866;SDS011;38739;53.324;6.862;2024-02-26T07:40:53;7.32;;;3.85;;
52866;SDS011;38739;53.324;6.862;2024-02-26T07:43:18;5.95;;;3.95;;
52866;SDS011;38739;53.324;6.862;2024-02-26T07:45:44;8.23;;;4.28;;
52866;SDS011;38739;53.324;6.862;2024-02-26T07:48:10;5.78;;;3.83;;
52866;SDS011;38739;53.324;6.862;2024-02-26T07:50:36;7.72;;;3.72;;
52866;SDS011;38739;53.324;6.862;2024-02-26T07:53:01;6.13;;;3.90;;
52866;SDS011;38739;53.324;6.862;2024-02-26T07:55:28;6.65;;;3.50;;
52866;SDS011;38739;53.324;6.862;2024-02-26T07:57:53;5.53;;;3.70;;
52866;SDS011;38739;53.324;6.862;2024-02-26T08:00:19;6.07;;;3.30;;
52866;SDS011;38739;53.324;6.862;2024-02-26T08:02:45;5.35;;;3.35;;
52866;SDS011;38739;53.324;6.862;2024-02-26T08:05:12;5.07;;;3.10;;
52866;SDS011;38739;53.324;6.862;2024-02-26T08:07:38;4.45;;;3.40;;
52866;SDS011;38739;53.324;6.862;2024-02-26T08:10:03;4.72;;;3.25;;
52866;SDS011;38739;53.324;6.862;2024-02-26T08:12:29;6.65;;;2.97;;
52866;SDS011;38739;53.324;6.862;2024-02-26T08:14:55;5.93;;;3.20;;
52866;SDS011;38739;53.324;6.862;2024-02-26T08:17:21;5.70;;;3.65;;
52866;SDS011;38739;53.324;6.862;2024-02-26T08:19:46;8.07;;;3.20;;
52866;SDS011;38739;53.324;6.862;2024-02-26T08:22:12;4.70;;;3.40;;
52866;SDS011;38739;53.324;6.862;2024-02-26T08:24:41;4.72;;;3.45;;
52866;SDS011;38739;53.324;6.862;2024-02-26T08:27:07;4.30;;;2.80;;
52866;SDS011;38739;53.324;6.862;2024-02-26T08:29:33;4.68;;;3.00;;
52866;SDS011;38739;53.324;6.862;2024-02-26T08:31:58;5.28;;;2.92;;
52866;SDS011;38739;53.324;6.862;2024-02-26T08:34:24;5.65;;;2.60;;
52866;SDS011;38739;53.324;6.862;2024-02-26T08:36:50;3.97;;;2.45;;
52866;SDS011;38739;53.324;6.862;2024-02-26T08:39:16;5.03;;;3.05;;
52866;SDS011;38739;53.324;6.862;2024-02-26T08:41:45;5.30;;;3.20;;
52866;SDS011;38739;53.324;6.862;2024-02-26T08:44:11;5.10;;;2.85;;
52866;SDS011;38739;53.324;6.862;2024-02-26T08:46:37;5.30;;;3.00;;
52866;SDS011;38739;53.324;6.862;2024-02-26T08:49:03;4.50;;;2.70;;
52866;SDS011;38739;53.324;6.862;2024-02-26T08:51:29;4.53;;;3.33;;
52866;SDS011;38739;53.324;6.862;2024-02-26T08:53:55;4.90;;;3.65;;
52866;SDS011;38739;53.324;6.862;2024-02-26T08:56:21;5.20;;;4.30;;
52866;SDS011;38739;53.324;6.862;2024-02-26T08:58:47;6.40;;;3.60;;
52866;SDS011;38739;53.324;6.862;2024-02-26T09:01:18;4.88;;;3.17;;
52866;SDS011;38739;53.324;6.862;2024-02-26T09:03:44;4.20;;;3.17;;
52866;SDS011;38739;53.324;6.862;2024-02-26T09:06:10;3.92;;;2.97;;
52866;SDS011;38739;53.324;6.862;2024-02-26T09:08:37;5.07;;;4.00;;
52866;SDS011;38739;53.324;6.862;2024-02-26T09:11:02;5.82;;;4.30;;
52866;SDS011;38739;53.324;6.862;2024-02-26T09:13:29;6.75;;;3.95;;
52866;SDS011;38739;53.324;6.862;2024-02-26T09:15:54;6.72;;;4.05;;
52866;SDS011;38739;53.324;6.862;2024-02-26T09:18:20;5.75;;;3.47;;
52866;SDS011;38739;53.324;6.862;2024-02-26T09:20:46;4.15;;;3.42;;
52866;SDS011;38739;53.324;6.862;2024-02-26T09:23:11;6.28;;;4.57;;
52866;SDS011;38739;53.324;6.862;2024-02-26T09:25:37;6.55;;;4.55;;
52866;SDS011;38739;53.324;6.862;2024-02-26T09:28:04;5.85;;;3.63;;
52866;SDS011;38739;53.324;6.862;2024-02-26T09:30:30;4.97;;;3.78;;
52866;SDS011;38739;53.324;6.862;2024-02-26T09:32:55;6.13;;;3.97;;
52866;SDS011;38739;53.324;6.862;2024-02-26T09:35:21;6.78;;;4.32;;
52866;SDS011;38739;53.324;6.862;2024-02-26T09:37:47;10.65;;;5.63;;
52866;SDS011;38739;53.324;6.862;2024-02-26T09:40:14;6.32;;;4.00;;
52866;SDS011;38739;53.324;6.862;2024-02-26T09:42:42;4.05;;;3.30;;
52866;SDS011;38739;53.324;6.862;2024-02-26T09:45:10;3.92;;;3.38;;
52866;SDS011;38739;53.324;6.862;2024-02-26T09:47:42;4.65;;;3.30;;
52866;SDS011;38739;53.324;6.862;2024-02-26T09:50:09;5.43;;;3.08;;
52866;SDS011;38739;53.324;6.862;2024-02-26T09:52:38;4.68;;;2.60;;
52866;SDS011;38739;53.324;6.862;2024-02-26T09:55:07;4.20;;;2.50;;
52866;SDS011;38739;53.324;6.862;2024-02-26T09:57:34;3.30;;;2.60;;
52866;SDS011;38739;53.324;6.862;2024-02-26T10:00:02;5.95;;;2.85;;
52866;SDS011;38739;53.324;6.862;2024-02-26T10:02:33;4.07;;;2.30;;
52866;SDS011;38739;53.324;6.862;2024-02-26T10:05:01;11.77;;;2.50;;
52866;SDS011;38739;53.324;6.862;2024-02-26T10:07:30;2.72;;;1.90;;
52866;SDS011;38739;53.324;6.862;2024-02-26T10:09:56;2.33;;;1.60;;
52866;SDS011;38739;53.324;6.862;2024-02-26T10:12:22;3.60;;;2.00;;
52866;SDS011;38739;53.324;6.862;2024-02-26T10:14:51;3.92;;;2.00;;
52866;SDS011;38739;53.324;6.862;2024-02-26T10:17:16;4.53;;;2.10;;
52866;SDS011;38739;53.324;6.862;2024-02-26T10:19:44;4.97;;;2.45;;
52866;SDS011;38739;53.324;6.862;2024-02-26T10:22:10;3.42;;;2.30;;
52866;SDS011;38739;53.324;6.862;2024-02-26T10:24:38;5.85;;;2.38;;
52866;SDS011;38739;53.324;6.862;2024-02-26T10:27:04;2.85;;;2.20;;
52866;SDS011;38739;53.324;6.862;2024-02-26T10:29:30;4.20;;;2.17;;
52866;SDS011;38739;53.324;6.862;2024-02-26T10:31:56;6.32;;;2.13;;
52866;SDS011;38739;53.324;6.862;2024-02-26T10:34:22;3.72;;;1.60;;
52866;SDS011;38739;53.324;6.862;2024-02-26T10:36:49;6.32;;;1.88;;
52866;SDS011;38739;53.324;6.862;2024-02-26T10:39:14;2.95;;;1.80;;
52866;SDS011;38739;53.324;6.862;2024-02-26T10:41:41;2.75;;;2.10;;
52866;SDS011;38739;53.324;6.862;2024-02-26T10:44:11;2.92;;;2.28;;
52866;SDS011;38739;53.324;6.862;2024-02-26T10:46:41;6.40;;;2.58;;
52866;SDS011;38739;53.324;6.862;2024-02-26T10:49:12;5.22;;;2.50;;
52866;SDS011;38739;53.324;6.862;2024-02-26T10:51:40;3.72;;;2.42;;
52866;SDS011;38739;53.324;6.862;2024-02-26T10:54:10;4.03;;;2.63;;
52866;SDS011;38739;53.324;6.862;2024-02-26T10:56:41;4.57;;;2.70;;
52866;SDS011;38739;53.324;6.862;2024-02-26T10:59:11;4.90;;;2.78;;
52866;SDS011;38739;53.324;6.862;2024-02-26T11:01:39;3.88;;;2.67;;
52866;SDS011;38739;53.324;6.862;2024-02-26T11:04:06;4.30;;;2.47;;
52866;SDS011;38739;53.324;6.862;2024-02-26T11:06:34;4.00;;;2.75;;
52866;SDS011;38739;53.324;6.862;2024-02-26T11:09:01;4.90;;;2.90;;
52866;SDS011;38739;53.324;6.862;2024-02-26T11:11:27;4.30;;;2.88;;
52866;SDS011;38739;53.324;6.862;2024-02-26T11:13:55;7.00;;;3.95;;
52866;SDS011;38739;53.324;6.862;2024-02-26T11:16:22;5.82;;;3.90;;
52866;SDS011;38739;53.324;6.862;2024-02-26T11:18:48;6.55;;;4.70;;
52866;SDS011;38739;53.324;6.862;2024-02-26T11:21:18;6.63;;;4.57;;
52866;SDS011;38739;53.324;6.862;2024-02-26T11:23:47;9.60;;;5.32;;
52866;SDS011;38739;53.324;6.862;2024-02-26T11:26:14;7.63;;;5.30;;
52866;SDS011;38739;53.324;6.862;2024-02-26T11:28:42;7.30;;;4.72;;
52866;SDS011;38739;53.324;6.862;2024-02-26T11:31:09;7.22;;;4.60;;
52866;SDS011;38739;53.324;6.862;2024-02-26T11:33:36;6.25;;;4.47;;
52866;SDS011;38739;53.324;6.862;2024-02-26T11:36:02;9.85;;;5.15;;
52866;SDS011;38739;53.324;6.862;2024-02-26T11:38:34;7.00;;;4.78;;
52866;SDS011;38739;53.324;6.862;2024-02-26T11:41:01;6.75;;;4.22;;
52866;SDS011;38739;53.324;6.862;2024-02-26T11:46:25;7.45;;;5.00;;
52866;SDS011;38739;53.324;6.862;2024-02-26T11:51:23;9.75;;;5.75;;
52866;SDS011;38739;53.324;6.862;2024-02-26T11:53:50;8.68;;;5.38;;
52866;SDS011;38739;53.324;6.862;2024-02-26T11:56:20;8.00;;;5.57;;
52866;SDS011;38739;53.324;6.862;2024-02-26T11:59:10;7.07;;;5.22;;
52866;SDS011;38739;53.324;6.862;2024-02-26T12:01:41;10.15;;;5.50;;
52866;SDS011;38739;53.324;6.862;2024-02-26T12:04:26;8.02;;;5.35;;
52866;SDS011;38739;53.324;6.862;2024-02-26T12:07:02;8.60;;;5.78;;
52866;SDS011;38739;53.324;6.862;2024-02-26T12:09:37;9.85;;;7.05;;
52866;SDS011;38739;53.324;6.862;2024-02-26T12:14:32;11.10;;;7.25;;
52866;SDS011;38739;53.324;6.862;2024-02-26T12:16:59;15.38;;;10.13;;
52866;SDS011;38739;53.324;6.862;2024-02-26T12:19:25;9.45;;;6.10;;
52866;SDS011;38739;53.324;6.862;2024-02-26T12:21:52;12.73;;;7.78;;
52866;SDS011;38739;53.324;6.862;2024-02-26T12:24:21;17.70;;;10.23;;
52866;SDS011;38739;53.324;6.862;2024-02-26T12:26:46;13.57;;;8.68;;
52866;SDS011;38739;53.324;6.862;2024-02-26T12:29:12;16.05;;;10.10;;
52866;SDS011;38739;53.324;6.862;2024-02-26T12:31:39;13.27;;;7.90;;
52866;SDS011;38739;53.324;6.862;2024-02-26T12:34:06;36.85;;;17.15;;
52866;SDS011;38739;53.324;6.862;2024-02-26T12:36:35;27.55;;;13.90;;
52866;SDS011;38739;53.324;6.862;2024-02-26T12:39:04;14.95;;;8.98;;
52866;SDS011;38739;53.324;6.862;2024-02-26T12:41:34;14.93;;;9.10;;
52866;SDS011;38739;53.324;6.862;2024-02-26T12:44:00;14.20;;;8.52;;
52866;SDS011;38739;53.324;6.862;2024-02-26T12:46:27;11.13;;;7.72;;
52866;SDS011;38739;53.324;6.862;2024-02-26T12:48:55;11.65;;;7.72;;
52866;SDS011;38739;53.324;6.862;2024-02-26T12:51:23;13.88;;;9.25;;
52866;SDS011;38739;53.324;6.862;2024-02-26T12:53:49;13.13;;;8.43;;
52866;SDS011;38739;53.324;6.862;2024-02-26T12:56:17;16.15;;;8.75;;
52866;SDS011;38739;53.324;6.862;2024-02-26T12:58:43;12.70;;;8.13;;
52866;SDS011;38739;53.324;6.862;2024-02-26T13:01:14;13.40;;;8.52;;
52866;SDS011;38739;53.324;6.862;2024-02-26T13:03:41;13.35;;;8.57;;
52866;SDS011;38739;53.324;6.862;2024-02-26T13:06:08;14.25;;;7.95;;
52866;SDS011;38739;53.324;6.862;2024-02-26T13:08:35;14.50;;;8.38;;
52866;SDS011;38739;53.324;6.862;2024-02-26T13:11:00;13.10;;;8.80;;
52866;SDS011;38739;53.324;6.862;2024-02-26T13:13:26;12.27;;;8.00;;
52866;SDS011;38739;53.324;6.862;2024-02-26T13:16:02;13.52;;;8.18;;
52866;SDS011;38739;53.324;6.862;2024-02-26T13:18:30;12.57;;;8.30;;
52866;SDS011;38739;53.324;6.862;2024-02-26T13:21:08;14.30;;;8.68;;
52866;SDS011;38739;53.324;6.862;2024-02-26T13:23:39;15.00;;;9.13;;
52866;SDS011;38739;53.324;6.862;2024-02-26T13:26:05;12.68;;;8.57;;
52866;SDS011;38739;53.324;6.862;2024-02-26T13:28:32;15.35;;;9.40;;
52866;SDS011;38739;53.324;6.862;2024-02-26T13:30:58;12.35;;;8.32;;
52866;SDS011;38739;53.324;6.862;2024-02-26T13:33:26;14.32;;;9.07;;
52866;SDS011;38739;53.324;6.862;2024-02-26T13:35:57;15.85;;;9.32;;
52866;SDS011;38739;53.324;6.862;2024-02-26T13:38:25;16.33;;;9.65;;
52866;SDS011;38739;53.324;6.862;2024-02-26T13:40:51;14.98;;;9.50;;
52866;SDS011;38739;53.324;6.862;2024-02-26T13:43:18;16.65;;;9.27;;
52866;SDS011;38739;53.324;6.862;2024-02-26T13:45:44;16.25;;;9.82;;
52866;SDS011;38739;53.324;6.862;2024-02-26T13:48:11;15.68;;;10.10;;
52866;SDS011;38739;53.324;6.862;2024-02-26T13:50:40;16.42;;;10.10;;
52866;SDS011;38739;53.324;6.862;2024-02-26T13:53:08;13.85;;;9.00;;
52866;SDS011;38739;53.324;6.862;2024-02-26T13:55:34;15.45;;;9.15;;
52866;SDS011;38739;53.324;6.862;2024-02-26T13:58:01;15.00;;;9.60;;
52866;SDS011;38739;53.324;6.862;2024-02-26T14:00:27;19.38;;;10.18;;
52866;SDS011;38739;53.324;6.862;2024-02-26T14:02:54;15.23;;;9.18;;
52866;SDS011;38739;53.324;6.862;2024-02-26T14:05:20;13.10;;;8.48;;
52866;SDS011;38739;53.324;6.862;2024-02-26T14:07:46;13.10;;;8.05;;
52866;SDS011;38739;53.324;6.862;2024-02-26T14:10:12;13.40;;;8.27;;
52866;SDS011;38739;53.324;6.862;2024-02-26T14:12:38;13.90;;;8.88;;
52866;SDS011;38739;53.324;6.862;2024-02-26T14:15:07;13.55;;;8.43;;
52866;SDS011;38739;53.324;6.862;2024-02-26T14:17:35;12.82;;;8.45;;
52866;SDS011;38739;53.324;6.862;2024-02-26T14:20:00;12.85;;;8.55;;
52866;SDS011;38739;53.324;6.862;2024-02-26T14:22:27;12.07;;;8.25;;
52866;SDS011;38739;53.324;6.862;2024-02-26T14:24:53;13.60;;;8.35;;
52866;SDS011;38739;53.324;6.862;2024-02-26T14:27:18;13.18;;;8.68;;
52866;SDS011;38739;53.324;6.862;2024-02-26T14:29:47;15.13;;;8.88;;
52866;SDS011;38739;53.324;6.862;2024-02-26T14:32:13;12.98;;;8.05;;
52866;SDS011;38739;53.324;6.862;2024-02-26T14:34:39;11.80;;;7.53;;
52866;SDS011;38739;53.324;6.862;2024-02-26T14:37:05;11.75;;;7.70;;
52866;SDS011;38739;53.324;6.862;2024-02-26T14:39:31;12.38;;;7.38;;
52866;SDS011;38739;53.324;6.862;2024-02-26T14:41:57;13.98;;;7.72;;
52866;SDS011;38739;53.324;6.862;2024-02-26T14:44:24;10.68;;;6.30;;
52866;SDS011;38739;53.324;6.862;2024-02-26T14:46:50;9.05;;;6.45;;